sensor_id;sensor_type;location;lat;lon;timestamp;P1;durP1;ratioP1;P2;durP2;ratioP2
70667;SDS011;58242;51.250;-1.118;2022-07-22T00:01:51;4.97;;;2.40;;
70667;SDS011;58242;51.250;-1.118;2022-07-22T00:04:16;5.90;;;2.47;;
70667;SDS011;58242;51.250;-1.118;2022-07-22T00:06:42;4.72;;;2.80;;
70667;SDS011;58242;51.250;-1.118;2022-07-22T00:09:08;6.18;;;2.80;;
70667;SDS011;58242;51.250;-1.118;2022-07-22T00:11:33;5.75;;;2.65;;
70667;SDS011;58242;51.250;-1.118;2022-07-22T00:13:59;6.47;;;2.88;;
70667;SDS011;58242;51.250;-1.118;2022-07-22T00:16:25;5.75;;;2.53;;
70667;SDS011;58242;51.250;-1.118;2022-07-22T00:18:51;8.10;;;3.05;;
70667;SDS011;58242;51.250;-1.118;2022-07-22T00:21:16;4.75;;;2.83;;
70667;SDS011;58242;51.250;-1.118;2022-07-22T00:23:41;5.22;;;2.90;;
70667;SDS011;58242;51.250;-1.118;2022-07-22T00:26:07;4.28;;;2.42;;
70667;SDS011;58242;51.250;-1.118;2022-07-22T00:28:32;7.38;;;3.17;;
70667;SDS011;58242;51.250;-1.118;2022-07-22T00:30:58;6.45;;;2.95;;
70667;SDS011;58242;51.250;-1.118;2022-07-22T00:33:23;7.13;;;3.20;;
70667;SDS011;58242;51.250;-1.118;2022-07-22T00:35:49;6.40;;;2.83;;
70667;SDS011;58242;51.250;-1.118;2022-07-22T00:38:14;5.15;;;2.58;;
70667;SDS011;58242;51.250;-1.118;2022-07-22T00:40:40;5.55;;;2.53;;
70667;SDS011;58242;51.250;-1.118;2022-07-22T00:43:05;4.47;;;2.65;;
70667;SDS011;58242;51.250;-1.118;2022-07-22T00:45:31;6.30;;;2.53;;
70667;SDS011;58242;51.250;-1.118;2022-07-22T00:47:57;5.50;;;2.72;;
70667;SDS011;58242;51.250;-1.118;2022-07-22T00:50:22;5.75;;;2.63;;
70667;SDS011;58242;51.250;-1.118;2022-07-22T00:52:48;6.25;;;2.85;;
70667;SDS011;58242;51.250;-1.118;2022-07-22T00:55:15;3.17;;;2.17;;
70667;SDS011;58242;51.250;-1.118;2022-07-22T00:57:40;4.38;;;2.72;;
70667;SDS011;58242;51.250;-1.118;2022-07-22T01:00:07;9.18;;;3.25;;
70667;SDS011;58242;51.250;-1.118;2022-07-22T01:02:35;5.68;;;2.72;;
70667;SDS011;58242;51.250;-1.118;2022-07-22T01:05:01;5.50;;;2.75;;
70667;SDS011;58242;51.250;-1.118;2022-07-22T01:07:26;6.00;;;2.35;;
70667;SDS011;58242;51.250;-1.118;2022-07-22T01:09:52;5.72;;;2.70;;
70667;SDS011;58242;51.250;-1.118;2022-07-22T01:12:17;3.67;;;2.42;;
70667;SDS011;58242;51.250;-1.118;2022-07-22T01:14:42;5.97;;;2.78;;
70667;SDS011;58242;51.250;-1.118;2022-07-22T01:17:08;5.78;;;2.72;;
70667;SDS011;58242;51.250;-1.118;2022-07-22T01:19:34;3.28;;;2.40;;
70667;SDS011;58242;51.250;-1.118;2022-07-22T01:22:01;5.28;;;2.38;;
70667;SDS011;58242;51.250;-1.118;2022-07-22T01:24:27;3.08;;;2.08;;
70667;SDS011;58242;51.250;-1.118;2022-07-22T01:26:52;2.42;;;1.73;;
70667;SDS011;58242;51.250;-1.118;2022-07-22T01:29:18;3.80;;;2.10;;
70667;SDS011;58242;51.250;-1.118;2022-07-22T01:31:43;4.25;;;2.08;;
70667;SDS011;58242;51.250;-1.118;2022-07-22T01:34:08;2.15;;;1.98;;
70667;SDS011;58242;51.250;-1.118;2022-07-22T01:36:34;2.50;;;1.70;;
70667;SDS011;58242;51.250;-1.118;2022-07-22T01:38:59;2.83;;;1.90;;
70667;SDS011;58242;51.250;-1.118;2022-07-22T01:41:25;2.17;;;1.98;;
70667;SDS011;58242;51.250;-1.118;2022-07-22T01:43:50;4.10;;;1.90;;
70667;SDS011;58242;51.250;-1.118;2022-07-22T01:46:16;2.67;;;1.65;;
70667;SDS011;58242;51.250;-1.118;2022-07-22T01:48:43;1.98;;;1.75;;
70667;SDS011;58242;51.250;-1.118;2022-07-22T01:51:09;2.00;;;1.80;;
70667;SDS011;58242;51.250;-1.118;2022-07-22T01:53:34;3.38;;;1.77;;
70667;SDS011;58242;51.250;-1.118;2022-07-22T01:55:59;1.77;;;1.67;;
70667;SDS011;58242;51.250;-1.118;2022-07-22T01:58:25;2.55;;;2.00;;
70667;SDS011;58242;51.250;-1.118;2022-07-22T02:00:50;4.88;;;2.22;;
70667;SDS011;58242;51.250;-1.118;2022-07-22T02:03:16;4.00;;;2.20;;
70667;SDS011;58242;51.250;-1.118;2022-07-22T02:05:41;3.45;;;2.17;;
70667;SDS011;58242;51.250;-1.118;2022-07-22T02:08:08;3.28;;;1.92;;
70667;SDS011;58242;51.250;-1.118;2022-07-22T02:10:34;5.45;;;1.90;;
70667;SDS011;58242;51.250;-1.118;2022-07-22T02:13:00;3.45;;;1.83;;
70667;SDS011;58242;51.250;-1.118;2022-07-22T02:15:26;3.88;;;2.30;;
70667;SDS011;58242;51.250;-1.118;2022-07-22T02:17:52;3.47;;;2.20;;
70667;SDS011;58242;51.250;-1.118;2022-07-22T02:20:18;3.92;;;2.20;;
70667;SDS011;58242;51.250;-1.118;2022-07-22T02:22:44;3.30;;;2.38;;
70667;SDS011;58242;51.250;-1.118;2022-07-22T02:25:10;6.65;;;2.20;;
70667;SDS011;58242;51.250;-1.118;2022-07-22T02:27:36;2.88;;;1.92;;
70667;SDS011;58242;51.250;-1.118;2022-07-22T02:30:03;4.25;;;2.15;;
70667;SDS011;58242;51.250;-1.118;2022-07-22T02:32:29;7.28;;;2.55;;
70667;SDS011;58242;51.250;-1.118;2022-07-22T02:34:55;5.40;;;2.00;;
70667;SDS011;58242;51.250;-1.118;2022-07-22T02:37:20;4.22;;;2.13;;
70667;SDS011;58242;51.250;-1.118;2022-07-22T02:39:46;2.20;;;1.73;;
70667;SDS011;58242;51.250;-1.118;2022-07-22T02:42:11;4.45;;;1.77;;
70667;SDS011;58242;51.250;-1.118;2022-07-22T02:44:37;3.45;;;1.77;;
70667;SDS011;58242;51.250;-1.118;2022-07-22T02:47:02;2.35;;;1.73;;
70667;SDS011;58242;51.250;-1.118;2022-07-22T02:49:28;2.95;;;1.92;;
70667;SDS011;58242;51.250;-1.118;2022-07-22T02:51:53;5.13;;;2.42;;
70667;SDS011;58242;51.250;-1.118;2022-07-22T02:54:18;3.30;;;2.08;;
70667;SDS011;58242;51.250;-1.118;2022-07-22T02:56:44;4.20;;;2.13;;
70667;SDS011;58242;51.250;-1.118;2022-07-22T02:59:09;3.80;;;1.58;;
70667;SDS011;58242;51.250;-1.118;2022-07-22T03:01:35;3.53;;;1.90;;
70667;SDS011;58242;51.250;-1.118;2022-07-22T03:04:00;3.25;;;2.15;;
70667;SDS011;58242;51.250;-1.118;2022-07-22T03:06:25;4.85;;;2.03;;
70667;SDS011;58242;51.250;-1.118;2022-07-22T03:08:51;3.63;;;1.75;;
70667;SDS011;58242;51.250;-1.118;2022-07-22T03:11:16;4.97;;;2.20;;
70667;SDS011;58242;51.250;-1.118;2022-07-22T03:13:42;4.75;;;2.22;;
70667;SDS011;58242;51.250;-1.118;2022-07-22T03:16:07;5.35;;;2.20;;
70667;SDS011;58242;51.250;-1.118;2022-07-22T03:18:33;5.53;;;2.35;;
70667;SDS011;58242;51.250;-1.118;2022-07-22T03:20:59;2.88;;;1.80;;
70667;SDS011;58242;51.250;-1.118;2022-07-22T03:23:24;3.45;;;1.90;;
70667;SDS011;58242;51.250;-1.118;2022-07-22T03:25:50;4.63;;;2.05;;
70667;SDS011;58242;51.250;-1.118;2022-07-22T03:28:15;5.05;;;2.25;;
70667;SDS011;58242;51.250;-1.118;2022-07-22T03:30:40;4.70;;;2.20;;
70667;SDS011;58242;51.250;-1.118;2022-07-22T03:33:06;3.78;;;1.77;;
70667;SDS011;58242;51.250;-1.118;2022-07-22T03:35:31;2.33;;;1.73;;
70667;SDS011;58242;51.250;-1.118;2022-07-22T03:37:57;4.22;;;2.00;;
70667;SDS011;58242;51.250;-1.118;2022-07-22T03:40:22;2.72;;;1.90;;
70667;SDS011;58242;51.250;-1.118;2022-07-22T03:42:47;4.57;;;2.45;;
70667;SDS011;58242;51.250;-1.118;2022-07-22T03:45:13;4.43;;;2.33;;
70667;SDS011;58242;51.250;-1.118;2022-07-22T03:47:39;7.55;;;2.42;;
70667;SDS011;58242;51.250;-1.118;2022-07-22T03:50:05;4.03;;;2.20;;
70667;SDS011;58242;51.250;-1.118;2022-07-22T03:52:31;4.10;;;1.88;;
70667;SDS011;58242;51.250;-1.118;2022-07-22T03:54:56;3.50;;;1.60;;
70667;SDS011;58242;51.250;-1.118;2022-07-22T03:57:22;3.28;;;1.90;;
70667;SDS011;58242;51.250;-1.118;2022-07-22T03:59:47;5.22;;;2.22;;
70667;SDS011;58242;51.250;-1.118;2022-07-22T04:02:12;4.38;;;2.05;;
70667;SDS011;58242;51.250;-1.118;2022-07-22T04:04:38;3.97;;;2.00;;
70667;SDS011;58242;51.250;-1.118;2022-07-22T04:07:04;3.22;;;2.20;;
70667;SDS011;58242;51.250;-1.118;2022-07-22T04:09:29;2.80;;;1.88;;
70667;SDS011;58242;51.250;-1.118;2022-07-22T04:11:55;2.88;;;2.13;;
70667;SDS011;58242;51.250;-1.118;2022-07-22T04:14:20;2.83;;;1.98;;
70667;SDS011;58242;51.250;-1.118;2022-07-22T04:16:46;3.78;;;1.80;;
70667;SDS011;58242;51.250;-1.118;2022-07-22T04:19:11;2.33;;;1.80;;
70667;SDS011;58242;51.250;-1.118;2022-07-22T04:21:36;3.60;;;1.73;;
70667;SDS011;58242;51.250;-1.118;2022-07-22T04:24:02;4.97;;;2.00;;
70667;SDS011;58242;51.250;-1.118;2022-07-22T04:26:28;3.65;;;2.00;;
70667;SDS011;58242;51.250;-1.118;2022-07-22T04:28:54;5.20;;;1.77;;
70667;SDS011;58242;51.250;-1.118;2022-07-22T04:31:19;3.60;;;2.05;;
70667;SDS011;58242;51.250;-1.118;2022-07-22T04:33:44;3.75;;;1.98;;
70667;SDS011;58242;51.250;-1.118;2022-07-22T04:36:10;4.75;;;2.20;;
70667;SDS011;58242;51.250;-1.118;2022-07-22T04:38:35;4.07;;;2.28;;
70667;SDS011;58242;51.250;-1.118;2022-07-22T04:41:01;3.65;;;2.00;;
70667;SDS011;58242;51.250;-1.118;2022-07-22T04:43:27;7.97;;;2.28;;
70667;SDS011;58242;51.250;-1.118;2022-07-22T04:45:52;7.80;;;1.90;;
70667;SDS011;58242;51.250;-1.118;2022-07-22T04:48:18;7.80;;;2.30;;
70667;SDS011;58242;51.250;-1.118;2022-07-22T04:50:43;2.33;;;1.65;;
70667;SDS011;58242;51.250;-1.118;2022-07-22T04:53:09;2.60;;;1.58;;
70667;SDS011;58242;51.250;-1.118;2022-07-22T04:55:34;6.55;;;2.40;;
70667;SDS011;58242;51.250;-1.118;2022-07-22T04:58:00;5.40;;;2.28;;
70667;SDS011;58242;51.250;-1.118;2022-07-22T05:00:25;5.25;;;2.13;;
70667;SDS011;58242;51.250;-1.118;2022-07-22T05:02:51;3.92;;;1.95;;
70667;SDS011;58242;51.250;-1.118;2022-07-22T05:05:16;3.33;;;1.83;;
70667;SDS011;58242;51.250;-1.118;2022-07-22T05:07:42;3.90;;;1.70;;
70667;SDS011;58242;51.250;-1.118;2022-07-22T05:10:07;2.97;;;1.63;;
70667;SDS011;58242;51.250;-1.118;2022-07-22T05:12:33;4.85;;;2.40;;
70667;SDS011;58242;51.250;-1.118;2022-07-22T05:14:59;1.90;;;1.75;;
70667;SDS011;58242;51.250;-1.118;2022-07-22T05:17:24;3.92;;;1.75;;
70667;SDS011;58242;51.250;-1.118;2022-07-22T05:19:50;4.70;;;2.50;;
70667;SDS011;58242;51.250;-1.118;2022-07-22T05:22:15;4.60;;;2.15;;
70667;SDS011;58242;51.250;-1.118;2022-07-22T05:24:40;4.38;;;2.00;;
70667;SDS011;58242;51.250;-1.118;2022-07-22T05:27:06;3.53;;;1.85;;
70667;SDS011;58242;51.250;-1.118;2022-07-22T05:29:31;6.78;;;2.22;;
70667;SDS011;58242;51.250;-1.118;2022-07-22T05:31:57;4.25;;;2.20;;
70667;SDS011;58242;51.250;-1.118;2022-07-22T05:34:22;6.85;;;2.15;;
70667;SDS011;58242;51.250;-1.118;2022-07-22T05:36:47;6.22;;;2.42;;
70667;SDS011;58242;51.250;-1.118;2022-07-22T05:39:13;3.15;;;1.92;;
70667;SDS011;58242;51.250;-1.118;2022-07-22T05:41:39;3.20;;;2.03;;
70667;SDS011;58242;51.250;-1.118;2022-07-22T05:44:04;5.35;;;2.28;;
70667;SDS011;58242;51.250;-1.118;2022-07-22T05:46:30;5.70;;;2.03;;
70667;SDS011;58242;51.250;-1.118;2022-07-22T05:48:56;4.88;;;2.33;;
70667;SDS011;58242;51.250;-1.118;2022-07-22T05:51:21;3.70;;;2.03;;
70667;SDS011;58242;51.250;-1.118;2022-07-22T05:53:47;3.85;;;2.45;;
70667;SDS011;58242;51.250;-1.118;2022-07-22T05:56:12;4.35;;;2.50;;
70667;SDS011;58242;51.250;-1.118;2022-07-22T05:58:38;6.35;;;2.10;;
70667;SDS011;58242;51.250;-1.118;2022-07-22T06:01:04;2.92;;;1.75;;
70667;SDS011;58242;51.250;-1.118;2022-07-22T06:03:30;3.30;;;1.65;;
70667;SDS011;58242;51.250;-1.118;2022-07-22T06:05:55;4.82;;;2.45;;
70667;SDS011;58242;51.250;-1.118;2022-07-22T06:08:20;6.40;;;2.10;;
70667;SDS011;58242;51.250;-1.118;2022-07-22T06:10:46;3.08;;;1.85;;
70667;SDS011;58242;51.250;-1.118;2022-07-22T06:13:11;5.18;;;2.40;;
70667;SDS011;58242;51.250;-1.118;2022-07-22T06:15:37;5.93;;;2.83;;
70667;SDS011;58242;51.250;-1.118;2022-07-22T06:18:02;6.88;;;2.90;;
70667;SDS011;58242;51.250;-1.118;2022-07-22T06:20:27;9.00;;;3.10;;
70667;SDS011;58242;51.250;-1.118;2022-07-22T06:22:53;4.13;;;2.20;;
70667;SDS011;58242;51.250;-1.118;2022-07-22T06:25:18;5.78;;;2.17;;
70667;SDS011;58242;51.250;-1.118;2022-07-22T06:27:43;4.00;;;2.17;;
70667;SDS011;58242;51.250;-1.118;2022-07-22T06:30:09;6.50;;;2.45;;
70667;SDS011;58242;51.250;-1.118;2022-07-22T06:32:35;4.38;;;2.53;;
70667;SDS011;58242;51.250;-1.118;2022-07-22T06:35:01;2.97;;;2.13;;
70667;SDS011;58242;51.250;-1.118;2022-07-22T06:37:27;5.75;;;3.20;;
70667;SDS011;58242;51.250;-1.118;2022-07-22T06:39:52;8.90;;;3.42;;
70667;SDS011;58242;51.250;-1.118;2022-07-22T06:42:18;9.45;;;3.03;;
70667;SDS011;58242;51.250;-1.118;2022-07-22T06:44:43;6.70;;;3.28;;
70667;SDS011;58242;51.250;-1.118;2022-07-22T06:47:08;6.88;;;3.00;;
70667;SDS011;58242;51.250;-1.118;2022-07-22T06:49:34;6.07;;;2.63;;
70667;SDS011;58242;51.250;-1.118;2022-07-22T06:51:59;4.35;;;2.70;;
70667;SDS011;58242;51.250;-1.118;2022-07-22T06:54:26;5.28;;;2.58;;
70667;SDS011;58242;51.250;-1.118;2022-07-22T06:56:52;8.27;;;3.25;;
70667;SDS011;58242;51.250;-1.118;2022-07-22T06:59:17;8.98;;;3.30;;
70667;SDS011;58242;51.250;-1.118;2022-07-22T07:01:43;5.38;;;2.60;;
70667;SDS011;58242;51.250;-1.118;2022-07-22T07:04:08;5.88;;;3.20;;
70667;SDS011;58242;51.250;-1.118;2022-07-22T07:06:34;4.65;;;2.90;;
70667;SDS011;58242;51.250;-1.118;2022-07-22T07:08:59;6.88;;;2.85;;
70667;SDS011;58242;51.250;-1.118;2022-07-22T07:11:25;7.40;;;3.30;;
70667;SDS011;58242;51.250;-1.118;2022-07-22T07:13:50;6.10;;;2.72;;
70667;SDS011;58242;51.250;-1.118;2022-07-22T07:16:15;14.43;;;3.22;;
70667;SDS011;58242;51.250;-1.118;2022-07-22T07:18:41;6.53;;;3.20;;
70667;SDS011;58242;51.250;-1.118;2022-07-22T07:21:06;8.70;;;3.22;;
70667;SDS011;58242;51.250;-1.118;2022-07-22T07:23:31;4.95;;;2.47;;
70667;SDS011;58242;51.250;-1.118;2022-07-22T07:25:57;6.28;;;3.40;;
70667;SDS011;58242;51.250;-1.118;2022-07-22T07:28:22;5.22;;;2.80;;
70667;SDS011;58242;51.250;-1.118;2022-07-22T07:30:48;6.55;;;2.78;;
70667;SDS011;58242;51.250;-1.118;2022-07-22T07:33:13;7.13;;;2.72;;
70667;SDS011;58242;51.250;-1.118;2022-07-22T07:35:39;5.22;;;2.72;;
70667;SDS011;58242;51.250;-1.118;2022-07-22T07:38:04;7.57;;;3.15;;
70667;SDS011;58242;51.250;-1.118;2022-07-22T07:40:30;6.18;;;3.13;;
70667;SDS011;58242;51.250;-1.118;2022-07-22T07:42:55;7.45;;;2.35;;
70667;SDS011;58242;51.250;-1.118;2022-07-22T07:45:21;2.72;;;2.05;;
70667;SDS011;58242;51.250;-1.118;2022-07-22T07:47:46;8.30;;;2.95;;
70667;SDS011;58242;51.250;-1.118;2022-07-22T07:50:11;4.50;;;2.38;;
70667;SDS011;58242;51.250;-1.118;2022-07-22T07:52:38;6.68;;;2.75;;
70667;SDS011;58242;51.250;-1.118;2022-07-22T07:55:05;4.47;;;2.70;;
70667;SDS011;58242;51.250;-1.118;2022-07-22T07:57:31;3.70;;;2.08;;
70667;SDS011;58242;51.250;-1.118;2022-07-22T07:59:57;7.20;;;2.28;;
70667;SDS011;58242;51.250;-1.118;2022-07-22T08:02:22;4.00;;;1.77;;
70667;SDS011;58242;51.250;-1.118;2022-07-22T08:04:48;6.82;;;2.53;;
70667;SDS011;58242;51.250;-1.118;2022-07-22T08:07:13;6.68;;;2.50;;
70667;SDS011;58242;51.250;-1.118;2022-07-22T08:09:38;3.50;;;2.20;;
70667;SDS011;58242;51.250;-1.118;2022-07-22T08:12:04;8.50;;;2.97;;
70667;SDS011;58242;51.250;-1.118;2022-07-22T08:14:30;5.82;;;2.53;;
70667;SDS011;58242;51.250;-1.118;2022-07-22T08:16:56;2.33;;;1.83;;
70667;SDS011;58242;51.250;-1.118;2022-07-22T08:19:21;3.10;;;2.17;;
70667;SDS011;58242;51.250;-1.118;2022-07-22T08:21:46;3.97;;;2.30;;
70667;SDS011;58242;51.250;-1.118;2022-07-22T08:24:12;3.22;;;2.33;;
70667;SDS011;58242;51.250;-1.118;2022-07-22T08:26:37;2.58;;;1.98;;
70667;SDS011;58242;51.250;-1.118;2022-07-22T08:29:03;3.42;;;1.90;;
70667;SDS011;58242;51.250;-1.118;2022-07-22T08:31:29;3.45;;;2.33;;
70667;SDS011;58242;51.250;-1.118;2022-07-22T08:33:56;5.53;;;2.22;;
70667;SDS011;58242;51.250;-1.118;2022-07-22T08:36:24;5.75;;;2.42;;
70667;SDS011;58242;51.250;-1.118;2022-07-22T08:38:49;4.65;;;2.42;;
70667;SDS011;58242;51.250;-1.118;2022-07-22T08:41:14;3.55;;;1.80;;
70667;SDS011;58242;51.250;-1.118;2022-07-22T08:43:40;2.15;;;1.95;;
70667;SDS011;58242;51.250;-1.118;2022-07-22T08:46:07;4.20;;;2.30;;
70667;SDS011;58242;51.250;-1.118;2022-07-22T08:48:32;3.83;;;2.47;;
70667;SDS011;58242;51.250;-1.118;2022-07-22T08:51:01;3.55;;;2.30;;
70667;SDS011;58242;51.250;-1.118;2022-07-22T08:53:27;2.53;;;2.25;;
70667;SDS011;58242;51.250;-1.118;2022-07-22T08:55:52;3.25;;;2.30;;
70667;SDS011;58242;51.250;-1.118;2022-07-22T08:58:17;3.78;;;2.50;;
70667;SDS011;58242;51.250;-1.118;2022-07-22T09:00:43;2.70;;;2.00;;
70667;SDS011;58242;51.250;-1.118;2022-07-22T09:03:24;2.97;;;2.50;;
70667;SDS011;58242;51.250;-1.118;2022-07-22T09:05:52;3.22;;;2.20;;
70667;SDS011;58242;51.250;-1.118;2022-07-22T09:08:19;2.70;;;2.00;;
70667;SDS011;58242;51.250;-1.118;2022-07-22T09:10:45;2.47;;;2.28;;
70667;SDS011;58242;51.250;-1.118;2022-07-22T09:13:11;3.38;;;2.20;;
70667;SDS011;58242;51.250;-1.118;2022-07-22T09:15:39;2.85;;;2.30;;
70667;SDS011;58242;51.250;-1.118;2022-07-22T09:18:11;2.55;;;1.80;;
70667;SDS011;58242;51.250;-1.118;2022-07-22T09:20:37;1.90;;;1.70;;
70667;SDS011;58242;51.250;-1.118;2022-07-22T09:23:13;3.75;;;2.05;;
70667;SDS011;58242;51.250;-1.118;2022-07-22T09:25:42;3.63;;;2.30;;
70667;SDS011;58242;51.250;-1.118;2022-07-22T09:30:38;2.25;;;1.83;;
70667;SDS011;58242;51.250;-1.118;2022-07-22T09:33:14;2.33;;;1.75;;
70667;SDS011;58242;51.250;-1.118;2022-07-22T09:35:40;4.78;;;2.20;;
70667;SDS011;58242;51.250;-1.118;2022-07-22T09:38:07;2.45;;;1.70;;
70667;SDS011;58242;51.250;-1.118;2022-07-22T09:40:41;2.50;;;2.13;;
70667;SDS011;58242;51.250;-1.118;2022-07-22T09:43:09;3.53;;;2.00;;
70667;SDS011;58242;51.250;-1.118;2022-07-22T09:45:43;2.20;;;1.88;;
70667;SDS011;58242;51.250;-1.118;2022-07-22T09:48:09;3.42;;;2.03;;
70667;SDS011;58242;51.250;-1.118;2022-07-22T09:50:34;3.80;;;2.45;;
70667;SDS011;58242;51.250;-1.118;2022-07-22T09:53:00;2.13;;;1.90;;
70667;SDS011;58242;51.250;-1.118;2022-07-22T09:55:26;4.07;;;2.08;;
70667;SDS011;58242;51.250;-1.118;2022-07-22T09:57:54;3.20;;;1.88;;
70667;SDS011;58242;51.250;-1.118;2022-07-22T10:00:21;3.25;;;1.90;;
70667;SDS011;58242;51.250;-1.118;2022-07-22T10:02:49;4.68;;;2.38;;
70667;SDS011;58242;51.250;-1.118;2022-07-22T10:05:18;2.78;;;1.80;;
70667;SDS011;58242;51.250;-1.118;2022-07-22T10:07:46;6.50;;;1.90;;
70667;SDS011;58242;51.250;-1.118;2022-07-22T10:10:15;2.60;;;2.08;;
70667;SDS011;58242;51.250;-1.118;2022-07-22T10:12:43;5.60;;;2.17;;
70667;SDS011;58242;51.250;-1.118;2022-07-22T10:15:11;3.40;;;1.88;;
70667;SDS011;58242;51.250;-1.118;2022-07-22T10:17:37;4.72;;;2.10;;
70667;SDS011;58242;51.250;-1.118;2022-07-22T10:20:07;3.40;;;1.90;;
70667;SDS011;58242;51.250;-1.118;2022-07-22T10:25:09;2.83;;;1.92;;
70667;SDS011;58242;51.250;-1.118;2022-07-22T10:30:48;1.92;;;1.70;;
70667;SDS011;58242;51.250;-1.118;2022-07-22T10:33:14;3.15;;;1.88;;
70667;SDS011;58242;51.250;-1.118;2022-07-22T10:38:15;3.38;;;1.88;;
70667;SDS011;58242;51.250;-1.118;2022-07-22T10:40:48;4.18;;;1.95;;
70667;SDS011;58242;51.250;-1.118;2022-07-22T10:43:17;2.00;;;1.55;;
70667;SDS011;58242;51.250;-1.118;2022-07-22T10:45:45;4.05;;;1.98;;
70667;SDS011;58242;51.250;-1.118;2022-07-22T10:48:18;3.40;;;1.83;;
70667;SDS011;58242;51.250;-1.118;2022-07-22T10:50:48;3.00;;;1.80;;
70667;SDS011;58242;51.250;-1.118;2022-07-22T10:53:17;5.47;;;2.10;;
70667;SDS011;58242;51.250;-1.118;2022-07-22T10:56:01;1.92;;;1.40;;
70667;SDS011;58242;51.250;-1.118;2022-07-22T10:58:40;3.22;;;1.85;;
70667;SDS011;58242;51.250;-1.118;2022-07-22T11:01:08;4.60;;;2.10;;
70667;SDS011;58242;51.250;-1.118;2022-07-22T11:03:37;3.63;;;2.53;;
70667;SDS011;58242;51.250;-1.118;2022-07-22T11:06:14;6.80;;;2.20;;
70667;SDS011;58242;51.250;-1.118;2022-07-22T11:08:43;3.10;;;1.75;;
70667;SDS011;58242;51.250;-1.118;2022-07-22T11:11:09;2.97;;;1.83;;
70667;SDS011;58242;51.250;-1.118;2022-07-22T11:13:39;3.17;;;1.77;;
70667;SDS011;58242;51.250;-1.118;2022-07-22T11:18:44;4.40;;;2.00;;
70667;SDS011;58242;51.250;-1.118;2022-07-22T11:21:21;6.60;;;2.25;;
70667;SDS011;58242;51.250;-1.118;2022-07-22T11:23:49;4.40;;;2.20;;
70667;SDS011;58242;51.250;-1.118;2022-07-22T11:26:17;2.78;;;2.47;;
70667;SDS011;58242;51.250;-1.118;2022-07-22T11:31:16;3.03;;;2.05;;
70667;SDS011;58242;51.250;-1.118;2022-07-22T11:33:43;5.35;;;2.63;;
70667;SDS011;58242;51.250;-1.118;2022-07-22T11:36:10;3.92;;;1.90;;
70667;SDS011;58242;51.250;-1.118;2022-07-22T11:38:40;6.07;;;2.15;;
70667;SDS011;58242;51.250;-1.118;2022-07-22T11:41:05;2.78;;;2.20;;
70667;SDS011;58242;51.250;-1.118;2022-07-22T11:43:37;6.50;;;2.25;;
70667;SDS011;58242;51.250;-1.118;2022-07-22T11:46:03;2.05;;;1.92;;
70667;SDS011;58242;51.250;-1.118;2022-07-22T11:48:29;4.35;;;2.33;;
70667;SDS011;58242;51.250;-1.118;2022-07-22T11:51:01;3.63;;;2.25;;
70667;SDS011;58242;51.250;-1.118;2022-07-22T11:53:28;5.95;;;2.17;;
70667;SDS011;58242;51.250;-1.118;2022-07-22T11:56:00;3.53;;;2.25;;
70667;SDS011;58242;51.250;-1.118;2022-07-22T11:58:33;2.28;;;1.50;;
70667;SDS011;58242;51.250;-1.118;2022-07-22T12:01:03;3.30;;;1.98;;
70667;SDS011;58242;51.250;-1.118;2022-07-22T12:03:32;3.83;;;1.95;;
70667;SDS011;58242;51.250;-1.118;2022-07-22T12:05:58;3.83;;;2.30;;
70667;SDS011;58242;51.250;-1.118;2022-07-22T12:08:25;6.65;;;2.42;;
70667;SDS011;58242;51.250;-1.118;2022-07-22T12:10:51;4.03;;;1.85;;
70667;SDS011;58242;51.250;-1.118;2022-07-22T12:13:17;2.90;;;1.98;;
70667;SDS011;58242;51.250;-1.118;2022-07-22T12:15:42;2.45;;;1.67;;
70667;SDS011;58242;51.250;-1.118;2022-07-22T12:18:21;4.45;;;2.15;;
70667;SDS011;58242;51.250;-1.118;2022-07-22T12:20:49;3.85;;;1.70;;
70667;SDS011;58242;51.250;-1.118;2022-07-22T12:23:15;3.92;;;1.90;;
70667;SDS011;58242;51.250;-1.118;2022-07-22T12:25:58;4.40;;;2.50;;
70667;SDS011;58242;51.250;-1.118;2022-07-22T12:28:25;3.75;;;2.25;;
70667;SDS011;58242;51.250;-1.118;2022-07-22T12:30:52;4.63;;;2.10;;
70667;SDS011;58242;51.250;-1.118;2022-07-22T12:33:19;4.65;;;2.30;;
70667;SDS011;58242;51.250;-1.118;2022-07-22T12:36:18;4.03;;;1.90;;
70667;SDS011;58242;51.250;-1.118;2022-07-22T12:38:37;3.25;;;2.15;;
70667;SDS011;58242;51.250;-1.118;2022-07-22T12:41:22;2.78;;;1.80;;
70667;SDS011;58242;51.250;-1.118;2022-07-22T12:43:51;5.70;;;2.42;;
70667;SDS011;58242;51.250;-1.118;2022-07-22T12:46:17;3.65;;;2.25;;
70667;SDS011;58242;51.250;-1.118;2022-07-22T12:48:50;4.05;;;2.28;;
70667;SDS011;58242;51.250;-1.118;2022-07-22T12:51:16;3.25;;;2.00;;
70667;SDS011;58242;51.250;-1.118;2022-07-22T12:53:42;6.07;;;2.42;;
70667;SDS011;58242;51.250;-1.118;2022-07-22T12:56:07;2.17;;;1.73;;
70667;SDS011;58242;51.250;-1.118;2022-07-22T12:58:35;6.13;;;2.10;;
70667;SDS011;58242;51.250;-1.118;2022-07-22T13:01:03;6.03;;;2.42;;
70667;SDS011;58242;51.250;-1.118;2022-07-22T13:03:28;4.68;;;2.50;;
70667;SDS011;58242;51.250;-1.118;2022-07-22T13:05:59;7.13;;;2.15;;
70667;SDS011;58242;51.250;-1.118;2022-07-22T13:08:26;3.13;;;1.95;;
70667;SDS011;58242;51.250;-1.118;2022-07-22T13:10:53;2.55;;;2.10;;
70667;SDS011;58242;51.250;-1.118;2022-07-22T13:13:20;2.72;;;2.20;;
70667;SDS011;58242;51.250;-1.118;2022-07-22T13:15:47;3.67;;;2.35;;
70667;SDS011;58242;51.250;-1.118;2022-07-22T13:18:13;2.30;;;2.10;;
70667;SDS011;58242;51.250;-1.118;2022-07-22T13:20:39;2.75;;;2.15;;
70667;SDS011;58242;51.250;-1.118;2022-07-22T13:23:05;2.67;;;2.20;;
70667;SDS011;58242;51.250;-1.118;2022-07-22T13:25:31;3.63;;;2.15;;
70667;SDS011;58242;51.250;-1.118;2022-07-22T13:27:57;2.70;;;2.35;;
70667;SDS011;58242;51.250;-1.118;2022-07-22T13:30:23;2.55;;;2.05;;
70667;SDS011;58242;51.250;-1.118;2022-07-22T13:32:48;2.67;;;2.33;;
70667;SDS011;58242;51.250;-1.118;2022-07-22T13:35:14;2.45;;;1.73;;
70667;SDS011;58242;51.250;-1.118;2022-07-22T13:37:40;4.72;;;2.30;;
70667;SDS011;58242;51.250;-1.118;2022-07-22T13:40:06;2.97;;;2.00;;
70667;SDS011;58242;51.250;-1.118;2022-07-22T13:42:32;2.78;;;2.20;;
70667;SDS011;58242;51.250;-1.118;2022-07-22T13:44:58;2.38;;;2.17;;
70667;SDS011;58242;51.250;-1.118;2022-07-22T13:47:23;2.10;;;2.00;;
70667;SDS011;58242;51.250;-1.118;2022-07-22T13:49:49;5.32;;;2.55;;
70667;SDS011;58242;51.250;-1.118;2022-07-22T13:52:14;2.35;;;1.88;;
70667;SDS011;58242;51.250;-1.118;2022-07-22T13:54:40;3.38;;;2.10;;
70667;SDS011;58242;51.250;-1.118;2022-07-22T13:57:06;3.67;;;2.38;;
70667;SDS011;58242;51.250;-1.118;2022-07-22T13:59:32;2.65;;;1.95;;
70667;SDS011;58242;51.250;-1.118;2022-07-22T14:01:58;3.25;;;1.98;;
70667;SDS011;58242;51.250;-1.118;2022-07-22T14:04:23;2.17;;;1.92;;
70667;SDS011;58242;51.250;-1.118;2022-07-22T14:06:49;3.03;;;2.03;;
70667;SDS011;58242;51.250;-1.118;2022-07-22T14:09:15;3.20;;;2.10;;
70667;SDS011;58242;51.250;-1.118;2022-07-22T14:11:40;4.75;;;2.10;;
70667;SDS011;58242;51.250;-1.118;2022-07-22T14:14:06;4.80;;;2.15;;
70667;SDS011;58242;51.250;-1.118;2022-07-22T14:16:32;4.13;;;2.10;;
70667;SDS011;58242;51.250;-1.118;2022-07-22T14:21:27;4.20;;;2.40;;
70667;SDS011;58242;51.250;-1.118;2022-07-22T14:23:53;8.55;;;2.35;;
70667;SDS011;58242;51.250;-1.118;2022-07-22T14:26:18;4.38;;;2.70;;
70667;SDS011;58242;51.250;-1.118;2022-07-22T14:28:43;2.75;;;2.17;;
70667;SDS011;58242;51.250;-1.118;2022-07-22T14:31:09;2.55;;;2.20;;
70667;SDS011;58242;51.250;-1.118;2022-07-22T14:33:34;4.72;;;2.38;;
70667;SDS011;58242;51.250;-1.118;2022-07-22T14:35:59;4.90;;;2.30;;
70667;SDS011;58242;51.250;-1.118;2022-07-22T14:38:25;3.90;;;2.50;;
70667;SDS011;58242;51.250;-1.118;2022-07-22T14:40:50;3.03;;;2.78;;
70667;SDS011;58242;51.250;-1.118;2022-07-22T14:43:15;6.88;;;3.10;;
70667;SDS011;58242;51.250;-1.118;2022-07-22T14:45:41;4.57;;;3.13;;
70667;SDS011;58242;51.250;-1.118;2022-07-22T14:48:06;5.07;;;2.95;;